Time;durP1;ratioP1;P1;durP2;ratioP2;P2;SDS_P1;SDS_P2;PMS_P1;PMS_P2;Temp;Humidity;BMP_temperature;BMP_pressure;BME280_temperature;BME280_humidity;BME280_pressure;Samples;Min_cycle;Max_cycle;Signal;HPM_P1;HPM_P2
2023/09/04 00:00:57;;;;;;;3.55;1.75;;;16.90;86.10;;;;;;5031713;28;20041;-79
2023/09/04 00:03:25;;;;;;;3.13;1.63;;;16.90;86.40;;;;;;5031533;28;20022;-79
2023/09/04 00:05:51;;;;;;;3.88;1.98;;;17.00;86.70;;;;;;5031785;28;20022;-78
2023/09/04 00:08:18;;;;;;;4.70;2.20;;;16.80;86.80;;;;;;5031642;28;20036;-79
2023/09/04 00:10:44;;;;;;;3.53;1.80;;;16.80;87.00;;;;;;5031546;28;20392;-79
2023/09/04 00:13:11;;;;;;;3.85;1.83;;;16.70;87.10;;;;;;5031344;28;20037;-78
2023/09/04 00:15:37;;;;;;;3.80;1.88;;;16.80;87.50;;;;;;5031595;28;20032;-79
2023/09/04 00:18:03;;;;;;;4.22;1.90;;;16.80;87.60;;;;;;5031585;28;20026;-79
2023/09/04 00:20:29;;;;;;;4.60;2.08;;;16.70;87.70;;;;;;5031380;28;20022;-79
2023/09/04 00:22:55;;;;;;;4.22;2.38;;;16.70;87.90;;;;;;5031220;28;20041;-79
2023/09/04 00:25:21;;;;;;;4.20;2.30;;;16.70;88.10;;;;;;5031800;28;20112;-79
2023/09/04 00:27:47;;;;;;;5.43;2.13;;;16.70;88.20;;;;;;5031316;28;20112;-79
2023/09/04 00:30:13;;;;;;;4.18;2.40;;;16.70;88.30;;;;;;5031435;28;20037;-79
2023/09/04 00:32:39;;;;;;;5.28;2.50;;;16.70;88.40;;;;;;5031103;28;20042;-79
2023/09/04 00:35:05;;;;;;;3.70;1.92;;;16.70;88.50;;;;;;5031271;28;20076;-78
2023/09/04 00:37:31;;;;;;;4.63;2.42;;;16.60;88.60;;;;;;5029912;28;20040;-78
2023/09/04 00:39:56;;;;;;;4.60;2.50;;;16.60;88.70;;;;;;5031407;28;20116;-78
2023/09/04 00:42:22;;;;;;;4.63;2.33;;;16.60;88.90;;;;;;5031212;28;20025;-79
2023/09/04 00:44:50;;;;;;;5.25;2.42;;;16.60;89.00;;;;;;5031228;28;20045;-79
2023/09/04 00:47:17;;;;;;;4.78;2.67;;;16.60;89.10;;;;;;5033769;28;20026;-79
2023/09/04 00:49:45;;;;;;;7.43;3.03;;;16.50;89.20;;;;;;5035130;28;20060;-79
2023/09/04 00:52:11;;;;;;;5.25;2.60;;;16.50;89.30;;;;;;5034809;28;20060;-79
2023/09/04 00:54:38;;;;;;;5.18;2.85;;;16.50;89.50;;;;;;5034810;28;20428;-79
2023/09/04 00:57:05;;;;;;;4.35;2.78;;;16.50;89.70;;;;;;5034559;28;20053;-79
2023/09/04 00:59:31;;;;;;;5.90;2.85;;;16.40;89.90;;;;;;5034506;28;20025;-79
2023/09/04 01:01:59;;;;;;;5.35;2.47;;;16.40;90.00;;;;;;5034583;28;20116;-78
2023/09/04 01:04:25;;;;;;;6.60;3.20;;;16.40;90.00;;;;;;5034280;28;20025;-79
2023/09/04 01:06:52;;;;;;;5.85;2.78;;;16.40;90.10;;;;;;5034048;28;20167;-79
2023/09/04 01:09:20;;;;;;;6.43;2.90;;;16.30;90.10;;;;;;5034367;28;20021;-79
2023/09/04 01:12:07;;;;;;;4.47;2.28;;;16.30;90.20;;;;;;5034723;28;20025;-79
2023/09/04 01:14:34;;;;;;;6.80;3.03;;;16.30;90.30;;;;;;5034173;28;20160;-79
2023/09/04 01:17:00;;;;;;;4.70;2.65;;;16.20;90.30;;;;;;5034106;28;20026;-79
2023/09/04 01:19:26;;;;;;;5.88;3.25;;;16.30;90.30;;;;;;5034327;28;20104;-79
2023/09/04 01:21:52;;;;;;;4.97;2.90;;;16.20;90.40;;;;;;5034256;28;20045;-79
2023/09/04 01:24:18;;;;;;;6.57;3.63;;;16.20;90.50;;;;;;5049411;28;20037;-79
2023/09/04 01:27:25;;;;;;;6.13;3.40;;;16.20;90.50;;;;;;5034349;28;20029;-79
2023/09/04 01:30:09;;;;;;;5.30;3.10;;;16.20;90.60;;;;;;5033627;28;20038;-79
2023/09/04 01:32:51;;;;;;;4.13;2.50;;;16.20;90.60;;;;;;5033654;28;20040;-80
2023/09/04 01:35:19;;;;;;;5.35;3.35;;;16.20;90.70;;;;;;5033596;28;20599;-79
2023/09/04 01:37:45;;;;;;;6.35;3.20;;;16.20;90.70;;;;;;5033764;28;20388;-79
2023/09/04 01:40:11;;;;;;;5.55;2.95;;;16.10;90.70;;;;;;5033821;28;20139;-79
2023/09/04 01:42:38;;;;;;;5.00;3.30;;;16.10;90.80;;;;;;5033694;28;20032;-78
2023/09/04 01:45:04;;;;;;;4.70;2.92;;;16.10;90.90;;;;;;5033600;28;20028;-79
2023/09/04 01:47:30;;;;;;;6.57;3.92;;;16.00;90.90;;;;;;5033672;28;20396;-79
2023/09/04 01:49:56;;;;;;;5.18;2.83;;;16.00;91.00;;;;;;5033642;28;20030;-79
2023/09/04 01:52:22;;;;;;;5.32;2.95;;;15.90;91.00;;;;;;5033604;28;20392;-79
2023/09/04 01:54:48;;;;;;;6.57;3.20;;;15.90;91.10;;;;;;5033682;28;20030;-79
2023/09/04 01:57:14;;;;;;;5.32;2.83;;;15.90;91.20;;;;;;5033242;28;20091;-79
2023/09/04 01:59:39;;;;;;;5.75;3.50;;;15.90;91.30;;;;;;5033717;28;20032;-78
2023/09/04 02:02:05;;;;;;;5.82;3.72;;;15.90;91.30;;;;;;5033406;28;20022;-78
2023/09/04 02:04:31;;;;;;;10.45;3.95;;;15.80;91.40;;;;;;5033652;28;20104;-78
2023/09/04 02:06:58;;;;;;;4.63;2.92;;;15.80;91.40;;;;;;5033157;28;20032;-78
2023/09/04 02:09:24;;;;;;;6.35;3.08;;;15.90;91.50;;;;;;5033209;28;20112;-78
2023/09/04 02:11:49;;;;;;;6.38;3.70;;;15.80;91.60;;;;;;5033266;28;20117;-78
2023/09/04 02:14:15;;;;;;;6.50;4.15;;;15.80;91.70;;;;;;5032947;28;20124;-78
2023/09/04 02:16:40;;;;;;;4.95;3.40;;;15.70;91.70;;;;;;5033078;28;20026;-78
2023/09/04 02:19:06;;;;;;;6.50;3.80;;;15.70;91.80;;;;;;5031881;28;20069;-78
2023/09/04 02:21:32;;;;;;;5.53;3.17;;;15.70;91.90;;;;;;5031483;28;20128;-79
2023/09/04 02:23:58;;;;;;;6.78;3.72;;;15.70;91.90;;;;;;5033077;28;20097;-78
2023/09/04 02:26:23;;;;;;;5.95;3.88;;;15.70;91.90;;;;;;5032923;28;20033;-78
2023/09/04 02:28:49;;;;;;;8.25;4.32;;;15.60;92.00;;;;;;5032868;28;20132;-78
2023/09/04 02:31:15;;;;;;;6.28;4.10;;;15.60;92.00;;;;;;5032671;28;20026;-79
2023/09/04 02:33:40;;;;;;;6.32;4.35;;;15.60;92.10;;;;;;5032874;28;20091;-79
2023/09/04 02:36:06;;;;;;;6.22;3.97;;;15.60;92.20;;;;;;5032817;28;20390;-79
2023/09/04 02:38:31;;;;;;;6.68;4.32;;;15.60;92.30;;;;;;5032459;28;20029;-78
2023/09/04 02:40:57;;;;;;;8.80;3.67;;;15.60;92.50;;;;;;5032571;28;20115;-79
2023/09/04 02:43:23;;;;;;;6.80;3.95;;;15.60;92.50;;;;;;5032567;28;20036;-78
2023/09/04 02:45:48;;;;;;;7.10;4.22;;;15.60;92.70;;;;;;5032591;28;20517;-78
2023/09/04 02:48:15;;;;;;;7.70;4.38;;;15.40;92.70;;;;;;5032759;28;20030;-79
2023/09/04 02:50:40;;;;;;;6.45;4.43;;;15.50;92.80;;;;;;5031299;28;20538;-79
2023/09/04 02:53:06;;;;;;;9.75;4.55;;;15.50;92.90;;;;;;5032375;28;20045;-79
2023/09/04 02:55:31;;;;;;;7.20;4.40;;;15.50;93.00;;;;;;5032353;28;20029;-79
2023/09/04 02:57:57;;;;;;;7.45;4.40;;;15.50;93.10;;;;;;5032556;28;20087;-79
2023/09/04 03:00:23;;;;;;;6.07;3.95;;;15.40;93.10;;;;;;5030903;28;20484;-79
2023/09/04 03:02:50;;;;;;;6.10;4.15;;;15.40;93.20;;;;;;5032370;28;20033;-78
2023/09/04 03:05:17;;;;;;;7.82;4.25;;;15.40;93.20;;;;;;5032823;28;20022;-78
2023/09/04 03:07:44;;;;;;;6.20;4.38;;;15.40;93.30;;;;;;5032462;28;20112;-78
2023/09/04 03:10:10;;;;;;;6.38;4.43;;;15.40;93.40;;;;;;5031791;28;20026;-79
2023/09/04 03:12:35;;;;;;;7.50;4.40;;;15.30;93.40;;;;;;5032280;28;20440;-79
2023/09/04 03:15:04;;;;;;;9.40;4.75;;;15.30;93.50;;;;;;5032226;28;20068;-79
2023/09/04 03:17:31;;;;;;;8.80;5.22;;;15.30;93.60;;;;;;5031733;28;20112;-79
2023/09/04 03:19:57;;;;;;;7.55;4.70;;;15.20;93.70;;;;;;5032280;28;20105;-79
2023/09/04 03:22:25;;;;;;;7.38;4.85;;;15.30;93.80;;;;;;5031994;28;20469;-79
2023/09/04 03:24:51;;;;;;;7.53;5.05;;;15.20;93.90;;;;;;5032354;28;20049;-79
2023/09/04 03:27:17;;;;;;;8.50;4.82;;;15.20;94.00;;;;;;5032440;28;20100;-78
2023/09/04 03:29:43;;;;;;;7.05;4.75;;;15.20;94.10;;;;;;5032888;28;20475;-79
2023/09/04 03:32:09;;;;;;;7.05;4.95;;;15.20;94.20;;;;;;5033335;28;20029;-79
2023/09/04 03:34:36;;;;;;;8.57;5.32;;;15.10;94.30;;;;;;5032588;28;20090;-79
2023/09/04 03:37:01;;;;;;;8.98;5.30;;;15.10;94.40;;;;;;5032500;28;20553;-79
2023/09/04 03:39:27;;;;;;;7.55;4.75;;;15.20;94.50;;;;;;5031278;28;20112;-79
2023/09/04 03:41:52;;;;;;;7.93;5.35;;;15.10;94.50;;;;;;5031541;28;20044;-79
2023/09/04 03:44:18;;;;;;;9.82;5.13;;;15.10;94.60;;;;;;5031318;28;20037;-78
2023/09/04 03:46:43;;;;;;;7.97;4.65;;;15.10;94.70;;;;;;5031193;28;20109;-79
2023/09/04 03:49:09;;;;;;;9.15;5.18;;;15.10;94.70;;;;;;5031306;28;20021;-79
2023/09/04 03:51:35;;;;;;;9.23;5.13;;;15.10;94.80;;;;;;5030916;28;20496;-79
2023/09/04 03:54:03;;;;;;;9.65;5.43;;;15.10;94.90;;;;;;5031610;28;20496;-79
2023/09/04 03:56:30;;;;;;;6.97;5.00;;;15.10;94.90;;;;;;5031179;28;20025;-78
2023/09/04 03:58:56;;;;;;;9.27;5.68;;;15.20;95.10;;;;;;5031561;28;20029;-78
2023/09/04 04:01:22;;;;;;;7.78;5.40;;;15.00;95.10;;;;;;5031584;28;20044;-79
2023/09/04 04:03:49;;;;;;;9.40;5.80;;;15.00;95.20;;;;;;5031786;28;20457;-79
2023/09/04 04:06:14;;;;;;;8.38;5.18;;;15.00;95.30;;;;;;5031379;28;20494;-78
2023/09/04 04:08:40;;;;;;;8.10;5.72;;;15.00;95.40;;;;;;5031472;28;20030;-78
2023/09/04 04:11:06;;;;;;;9.65;6.45;;;15.00;95.40;;;;;;5031423;28;20026;-78
2023/09/04 04:13:32;;;;;;;10.13;6.07;;;15.00;95.50;;;;;;5031218;28;20037;-78
2023/09/04 04:15:59;;;;;;;10.45;6.95;;;15.00;95.60;;;;;;5031522;28;20484;-78
2023/09/04 04:18:27;;;;;;;10.25;6.38;;;14.90;95.70;;;;;;5031567;28;20025;-78
2023/09/04 04:20:53;;;;;;;10.13;6.45;;;14.90;95.80;;;;;;5031523;28;20112;-78
2023/09/04 04:23:18;;;;;;;8.98;5.93;;;14.90;95.90;;;;;;5035124;28;20119;-79
2023/09/04 04:25:44;;;;;;;13.05;6.20;;;14.90;95.90;;;;;;5035059;28;20502;-79
2023/09/04 04:28:10;;;;;;;8.52;6.32;;;14.90;96.00;;;;;;5035585;28;20029;-79
2023/09/04 04:30:36;;;;;;;10.05;6.50;;;14.90;96.00;;;;;;5035022;28;20061;-79
2023/09/04 04:33:02;;;;;;;9.20;5.80;;;14.90;96.10;;;;;;5034754;28;20404;-79
2023/09/04 04:35:28;;;;;;;8.82;6.38;;;14.90;96.10;;;;;;5032294;28;20034;-79
2023/09/04 04:37:53;;;;;;;10.57;6.07;;;14.90;96.20;;;;;;5033155;28;20033;-79
2023/09/04 04:40:20;;;;;;;12.60;7.13;;;14.80;96.20;;;;;;5023388;28;20029;-79
2023/09/04 04:42:46;;;;;;;12.20;7.10;;;14.80;96.30;;;;;;5021343;28;20473;-80
2023/09/04 04:45:12;;;;;;;11.95;6.28;;;14.80;96.40;;;;;;5026568;28;20034;-79
2023/09/04 04:47:37;;;;;;;10.82;6.78;;;14.80;96.40;;;;;;5023360;28;20041;-79
2023/09/04 04:50:03;;;;;;;9.60;6.60;;;14.80;96.50;;;;;;5031378;28;20032;-78
2023/09/04 04:52:29;;;;;;;10.63;6.93;;;14.80;96.50;;;;;;5034080;28;20202;-79
2023/09/04 04:54:54;;;;;;;10.38;7.03;;;14.80;96.60;;;;;;5034089;28;20025;-79
2023/09/04 04:57:20;;;;;;;10.73;6.28;;;14.80;96.70;;;;;;5034209;28;20498;-79
2023/09/04 04:59:45;;;;;;;10.00;7.13;;;14.80;96.70;;;;;;5034390;28;20080;-79
2023/09/04 05:02:12;;;;;;;10.75;6.38;;;14.80;96.70;;;;;;5034701;28;20079;-79
2023/09/04 05:04:44;;;;;;;10.23;7.03;;;14.80;96.80;;;;;;5032556;28;20069;-79
2023/09/04 05:07:09;;;;;;;11.68;7.63;;;14.80;96.90;;;;;;5033785;28;20033;-79
2023/09/04 05:09:35;;;;;;;10.50;6.40;;;14.80;96.90;;;;;;5032851;28;20082;-79
2023/09/04 05:12:01;;;;;;;9.95;7.00;;;14.80;97.00;;;;;;5033817;28;20105;-78
2023/09/04 05:14:26;;;;;;;10.63;6.65;;;14.80;97.00;;;;;;5032872;28;20041;-77
2023/09/04 05:16:52;;;;;;;10.98;7.45;;;14.90;97.10;;;;;;5029960;28;20461;-78
2023/09/04 05:19:17;;;;;;;11.90;7.28;;;14.80;97.10;;;;;;5032312;28;20045;-78
2023/09/04 05:21:43;;;;;;;11.43;7.85;;;14.90;97.10;;;;;;5030670;28;20045;-78
2023/09/04 05:24:08;;;;;;;9.93;6.90;;;14.90;97.20;;;;;;5031790;28;20684;-77
2023/09/04 05:26:34;;;;;;;10.35;7.60;;;15.10;97.20;;;;;;5031979;28;20095;-79
2023/09/04 05:28:59;;;;;;;10.73;6.97;;;15.00;97.20;;;;;;5033516;28;20019;-77
2023/09/04 05:31:25;;;;;;;10.68;6.50;;;15.00;97.20;;;;;;5032012;28;20116;-77
2023/09/04 05:33:51;;;;;;;11.93;7.25;;;15.00;97.30;;;;;;5032140;28;20080;-77
2023/09/04 05:36:16;;;;;;;8.52;6.28;;;15.10;97.30;;;;;;5026318;28;20037;-78
2023/09/04 05:38:42;;;;;;;11.05;7.05;;;15.10;97.30;;;;;;5023123;28;20025;-78
2023/09/04 05:41:08;;;;;;;12.27;6.65;;;15.10;97.30;;;;;;5023192;28;20025;-76
2023/09/04 05:43:33;;;;;;;9.93;6.75;;;15.20;97.40;;;;;;5018924;28;20152;-77
2023/09/04 05:45:59;;;;;;;10.73;6.47;;;15.20;97.40;;;;;;5023998;28;20116;-77
2023/09/04 05:48:25;;;;;;;12.20;7.07;;;15.20;97.40;;;;;;5025301;28;20126;-77
2023/09/04 05:50:50;;;;;;;10.65;7.10;;;15.20;97.40;;;;;;5030750;28;20025;-77
2023/09/04 05:53:18;;;;;;;10.25;6.70;;;15.20;97.40;;;;;;5033255;28;20049;-78
2023/09/04 05:55:43;;;;;;;11.82;7.00;;;15.30;97.40;;;;;;5033354;28;20491;-77
2023/09/04 05:58:11;;;;;;;9.60;6.68;;;15.30;97.40;;;;;;5033708;28;20021;-79
2023/09/04 06:00:37;;;;;;;11.20;7.53;;;15.40;97.50;;;;;;5033481;28;20120;-77
2023/09/04 06:03:03;;;;;;;8.40;6.50;;;15.40;97.40;;;;;;5033435;28;20112;-77
2023/09/04 06:05:28;;;;;;;8.02;5.47;;;15.40;97.40;;;;;;5033679;28;20029;-79
2023/09/04 06:07:56;;;;;;;11.85;6.65;;;15.50;97.40;;;;;;5033172;28;20109;-79
2023/09/04 06:10:21;;;;;;;11.55;7.30;;;15.50;97.40;;;;;;5033095;28;20037;-78
2023/09/04 06:12:47;;;;;;;10.02;5.93;;;15.50;97.50;;;;;;5032516;28;20038;-79
2023/09/04 06:15:13;;;;;;;9.02;6.45;;;15.50;97.50;;;;;;5032738;28;20088;-79
2023/09/04 06:17:38;;;;;;;8.23;5.97;;;15.60;97.60;;;;;;5032732;28;20033;-79
2023/09/04 06:20:04;;;;;;;9.98;7.18;;;15.60;97.60;;;;;;5032712;28;20025;-79
2023/09/04 06:22:30;;;;;;;10.77;6.85;;;15.70;97.70;;;;;;5032562;28;20120;-79
2023/09/04 06:24:55;;;;;;;9.70;6.50;;;15.70;97.80;;;;;;5032424;28;20113;-79
2023/09/04 06:27:21;;;;;;;8.18;6.15;;;15.70;97.80;;;;;;5031096;28;20032;-79
2023/09/04 06:29:47;;;;;;;13.52;7.40;;;15.70;97.90;;;;;;5032244;28;20469;-79
2023/09/04 06:32:14;;;;;;;11.50;6.53;;;15.80;97.90;;;;;;5032392;28;20026;-79
2023/09/04 06:34:40;;;;;;;8.82;6.38;;;15.80;97.90;;;;;;5033078;28;20116;-79
2023/09/04 06:37:05;;;;;;;10.60;7.18;;;15.90;98.00;;;;;;5032780;28;20125;-79
2023/09/04 06:39:31;;;;;;;9.10;6.32;;;15.90;98.00;;;;;;5033002;28;20028;-79
2023/09/04 06:41:56;;;;;;;9.82;6.55;;;16.00;98.00;;;;;;5032848;28;20041;-79
2023/09/04 06:44:22;;;;;;;10.07;7.00;;;16.00;98.00;;;;;;5031847;28;20026;-79
2023/09/04 06:46:47;;;;;;;9.95;6.82;;;16.00;98.00;;;;;;5031473;28;20484;-79
2023/09/04 06:49:14;;;;;;;10.15;6.85;;;16.10;98.00;;;;;;5031392;28;20028;-79
2023/09/04 06:51:39;;;;;;;9.05;6.78;;;16.10;98.00;;;;;;5031030;28;20076;-79
2023/09/04 06:54:05;;;;;;;9.73;6.47;;;16.20;98.00;;;;;;5032296;28;20404;-79
2023/09/04 06:56:30;;;;;;;12.43;6.97;;;16.30;98.00;;;;;;5032346;28;20024;-79
2023/09/04 06:58:56;;;;;;;9.95;6.65;;;16.30;98.00;;;;;;5032653;28;20066;-79
2023/09/04 07:01:21;;;;;;;10.18;7.13;;;16.40;98.00;;;;;;5030987;28;20029;-79
2023/09/04 07:03:48;;;;;;;8.43;6.30;;;16.40;97.90;;;;;;5032194;28;20087;-79
2023/09/04 07:06:13;;;;;;;10.07;6.70;;;16.50;97.90;;;;;;5032075;28;20071;-80
2023/09/04 07:08:39;;;;;;;10.25;7.10;;;16.50;97.90;;;;;;5032145;28;20025;-79
2023/09/04 07:11:04;;;;;;;8.48;6.38;;;16.60;97.90;;;;;;5032127;28;20021;-80
2023/09/04 07:13:30;;;;;;;9.27;6.47;;;16.60;97.80;;;;;;5031576;28;20045;-79
2023/09/04 07:15:55;;;;;;;9.57;6.70;;;16.70;97.80;;;;;;5031634;28;20064;-80
2023/09/04 07:18:21;;;;;;;11.25;6.65;;;16.70;97.70;;;;;;5031843;28;20026;-79
2023/09/04 07:20:46;;;;;;;9.07;5.82;;;16.80;97.70;;;;;;5030501;28;20037;-79
2023/09/04 07:23:12;;;;;;;9.25;5.75;;;16.90;97.70;;;;;;5031643;28;20700;-79
2023/09/04 07:25:38;;;;;;;8.70;5.82;;;16.90;97.60;;;;;;5031673;28;20455;-80
2023/09/04 07:28:03;;;;;;;8.50;5.95;;;17.00;97.60;;;;;;5031658;28;20033;-79
2023/09/04 07:30:29;;;;;;;6.90;5.25;;;17.00;97.50;;;;;;5031608;28;20053;-80
2023/09/04 07:32:54;;;;;;;7.72;5.72;;;17.10;97.50;;;;;;5030635;28;20041;-79
2023/09/04 07:35:20;;;;;;;7.47;4.93;;;17.20;97.40;;;;;;5031708;28;20116;-80
2023/09/04 07:37:46;;;;;;;7.30;4.72;;;17.30;97.30;;;;;;5031518;28;20033;-79
2023/09/04 07:40:11;;;;;;;10.25;5.50;;;17.20;97.20;;;;;;5031736;28;20029;-79
2023/09/04 07:42:37;;;;;;;7.20;4.55;;;17.40;97.20;;;;;;5030371;28;20029;-79
2023/09/04 07:45:03;;;;;;;7.20;4.85;;;17.40;97.10;;;;;;5031555;28;20087;-80
2023/09/04 07:47:29;;;;;;;8.57;5.30;;;17.50;97.00;;;;;;5031852;28;20029;-79
2023/09/04 07:49:55;;;;;;;7.15;4.65;;;17.60;96.90;;;;;;5031636;28;20029;-80
2023/09/04 07:52:21;;;;;;;7.82;4.30;;;17.70;96.90;;;;;;5031212;28;20120;-80
2023/09/04 07:54:48;;;;;;;6.80;4.68;;;17.70;96.70;;;;;;5031582;28;20033;-80
2023/09/04 07:57:14;;;;;;;6.43;4.25;;;17.80;96.60;;;;;;5035531;28;20029;-80
2023/09/04 07:59:40;;;;;;;8.13;4.75;;;17.80;96.40;;;;;;5035898;28;20029;-80
2023/09/04 08:02:06;;;;;;;6.53;4.32;;;17.90;96.30;;;;;;5034474;28;20101;-80
2023/09/04 08:04:31;;;;;;;9.18;4.80;;;17.90;96.20;;;;;;5035485;28;20388;-80
2023/09/04 08:06:57;;;;;;;8.32;4.53;;;18.00;96.10;;;;;;5035430;28;20850;-79
2023/09/04 08:09:23;;;;;;;8.98;4.25;;;18.10;96.00;;;;;;5034270;28;20026;-80
2023/09/04 08:11:50;;;;;;;7.25;4.78;;;18.10;95.80;;;;;;5035657;28;20025;-80
2023/09/04 08:14:15;;;;;;;7.93;4.53;;;18.20;96.00;;;;;;5035265;28;20048;-80
2023/09/04 08:16:41;;;;;;;6.43;4.18;;;18.30;95.60;;;;;;5035404;28;20029;-80
2023/09/04 08:19:06;;;;;;;7.10;4.63;;;18.30;95.50;;;;;;5035716;28;20029;-80
2023/09/04 08:21:32;;;;;;;10.93;4.78;;;18.40;95.30;;;;;;5035034;28;20053;-80
2023/09/04 08:23:58;;;;;;;6.40;4.13;;;18.50;95.50;;;;;;5035837;28;20030;-80
2023/09/04 08:26:23;;;;;;;8.07;4.55;;;18.60;95.10;;;;;;5035596;28;20036;-80
2023/09/04 08:28:49;;;;;;;6.63;3.72;;;18.60;94.90;;;;;;5035424;28;20084;-80
2023/09/04 08:31:14;;;;;;;6.80;3.83;;;18.70;94.80;;;;;;5035319;28;20022;-80
2023/09/04 08:33:40;;;;;;;6.50;3.60;;;18.80;94.70;;;;;;5035096;28;20041;-80
2023/09/04 08:36:05;;;;;;;7.70;3.55;;;18.90;94.50;;;;;;5034850;28;20360;-80
2023/09/04 08:38:31;;;;;;;5.72;3.70;;;18.90;94.40;;;;;;5034630;28;20047;-80
2023/09/04 08:41:00;;;;;;;7.63;3.45;;;19.00;94.20;;;;;;5034354;28;20025;-78
2023/09/04 08:43:30;;;;;;;6.82;3.55;;;19.00;94.10;;;;;;5034635;28;20029;-80
2023/09/04 08:45:59;;;;;;;5.78;3.80;;;19.10;93.90;;;;;;5033537;28;20444;-80
2023/09/04 08:48:28;;;;;;;8.00;3.97;;;19.20;93.80;;;;;;5034653;28;20033;-80
2023/09/04 08:50:54;;;;;;;5.20;3.60;;;19.20;93.70;;;;;;5035152;28;20021;-80
2023/09/04 08:53:21;;;;;;;7.80;3.65;;;19.30;93.60;;;;;;5034284;28;20033;-80
2023/09/04 08:55:46;;;;;;;5.53;3.05;;;19.40;93.50;;;;;;5034840;28;20472;-80
2023/09/04 08:58:12;;;;;;;7.22;3.03;;;19.50;93.40;;;;;;5033416;28;20032;-80
2023/09/04 09:00:38;;;;;;;5.57;2.70;;;19.50;93.30;;;;;;5034732;28;20506;-80
2023/09/04 09:03:05;;;;;;;6.43;3.17;;;19.60;93.10;;;;;;5034606;28;20025;-80
2023/09/04 09:05:33;;;;;;;3.65;2.35;;;19.70;93.00;;;;;;5033008;28;20025;-80
2023/09/04 09:08:00;;;;;;;4.38;2.53;;;19.70;92.90;;;;;;5033830;28;20395;-80
2023/09/04 09:10:25;;;;;;;5.70;2.70;;;19.80;92.70;;;;;;5034711;28;20060;-80
2023/09/04 09:12:51;;;;;;;7.15;2.17;;;19.90;92.60;;;;;;5034923;28;20065;-80
2023/09/04 09:15:18;;;;;;;6.07;2.22;;;20.00;92.40;;;;;;5034525;28;20490;-80
2023/09/04 09:17:54;;;;;;;3.78;1.98;;;20.00;92.20;;;;;;5034283;28;20117;-80
2023/09/04 09:20:39;;;;;;;5.47;2.17;;;20.10;92.00;;;;;;5034600;28;20037;-79
2023/09/04 09:23:05;;;;;;;4.93;2.00;;;20.20;91.90;;;;;;5033946;28;20084;-80
2023/09/04 09:25:32;;;;;;;4.43;1.95;;;20.30;91.70;;;;;;5034172;28;20033;-80
2023/09/04 09:28:06;;;;;;;4.90;2.30;;;20.40;91.60;;;;;;5034369;28;20553;-80
2023/09/04 09:30:37;;;;;;;4.30;2.08;;;20.40;91.20;;;;;;5034288;28;20035;-80
2023/09/04 09:33:06;;;;;;;3.78;2.05;;;20.50;91.10;;;;;;5032769;28;20488;-80
2023/09/04 09:35:32;;;;;;;4.50;2.17;;;20.60;90.80;;;;;;5033970;28;20090;-80
2023/09/04 09:38:00;;;;;;;5.15;2.40;;;20.60;90.70;;;;;;5034199;28;21169;-80
2023/09/04 09:40:25;;;;;;;5.05;2.42;;;20.70;90.50;;;;;;5033976;28;20029;-80
2023/09/04 09:42:52;;;;;;;3.40;1.70;;;20.80;90.30;;;;;;5033828;28;20036;-80
2023/09/04 09:45:18;;;;;;;7.82;2.40;;;20.90;90.00;;;;;;5033715;28;20025;-80
2023/09/04 09:47:44;;;;;;;6.07;2.13;;;21.00;89.80;;;;;;5033565;28;20153;-80
2023/09/04 09:50:10;;;;;;;5.25;1.98;;;21.00;89.40;;;;;;5033326;28;20412;-80
2023/09/04 09:52:35;;;;;;;6.22;2.53;;;21.10;89.10;;;;;;5032123;28;20029;-80
2023/09/04 09:55:01;;;;;;;5.53;1.90;;;21.20;88.80;;;;;;5033346;28;20025;-80
2023/09/04 09:57:29;;;;;;;4.75;2.15;;;21.30;88.50;;;;;;5031864;28;20026;-80
2023/09/04 09:59:55;;;;;;;5.13;2.30;;;21.30;88.10;;;;;;5033376;28;20032;-80
2023/09/04 10:02:23;;;;;;;3.95;1.90;;;21.40;87.80;;;;;;5033415;28;20373;-80
2023/09/04 10:04:49;;;;;;;3.25;1.55;;;21.50;87.50;;;;;;5033231;28;20052;-80
2023/09/04 10:07:25;;;;;;;5.57;2.22;;;21.60;87.70;;;;;;5033346;28;20468;-80
2023/09/04 10:10:05;;;;;;;5.45;2.30;;;21.70;86.60;;;;;;5033381;28;20021;-80
2023/09/04 10:12:49;;;;;;;4.65;1.88;;;21.90;86.10;;;;;;5033807;28;20036;-80
2023/09/04 10:15:26;;;;;;;3.70;1.67;;;22.10;85.80;;;;;;5033716;28;20121;-80
2023/09/04 10:17:57;;;;;;;4.25;2.20;;;22.30;84.90;;;;;;5033812;28;20018;-80
2023/09/04 10:20:25;;;;;;;4.20;1.80;;;22.50;84.20;;;;;;5033628;28;20030;-80
2023/09/04 10:23:08;;;;;;;3.50;1.90;;;22.70;83.70;;;;;;5031855;28;20488;-80
2023/09/04 10:25:53;;;;;;;4.37;1.37;;;23.00;83.00;;;;;;5033032;28;20112;-80
2023/09/04 10:28:27;;;;;;;4.78;1.80;;;23.20;82.70;;;;;;5033208;28;20450;-80
2023/09/04 10:30:54;;;;;;;3.30;1.73;;;23.40;81.90;;;;;;5032965;28;20032;-80
2023/09/04 10:33:20;;;;;;;6.75;1.63;;;23.60;81.30;;;;;;5032861;28;20033;-80
2023/09/04 10:35:46;;;;;;;3.13;1.20;;;23.90;80.50;;;;;;5032961;28;20499;-80
2023/09/04 10:38:12;;;;;;;3.22;1.52;;;24.10;79.90;;;;;;5032737;28;20034;-80
2023/09/04 10:40:39;;;;;;;3.83;1.58;;;24.30;79.40;;;;;;5031351;28;20025;-79
2023/09/04 10:43:05;;;;;;;7.68;1.98;;;24.50;78.50;;;;;;5032528;28;20028;-80
2023/09/04 10:45:32;;;;;;;2.70;1.35;;;24.80;77.70;;;;;;5032606;28;20116;-80
2023/09/04 10:47:59;;;;;;;3.88;1.30;;;25.00;76.80;;;;;;5032470;28;20037;-80
2023/09/04 10:50:35;;;;;;;3.22;1.23;;;25.20;76.00;;;;;;5032721;28;20074;-79
2023/09/04 10:53:04;;;;;;;1.83;1.02;;;25.40;74.90;;;;;;5032467;28;20094;-80
2023/09/04 10:55:37;;;;;;;6.45;1.27;;;25.70;73.90;;;;;;5032574;28;20036;-80
2023/09/04 10:58:05;;;;;;;3.55;1.30;;;25.90;72.90;;;;;;5032827;28;20026;-80
2023/09/04 11:00:37;;;;;;;3.00;1.20;;;26.10;72.10;;;;;;5032985;28;20025;-80
2023/09/04 11:03:23;;;;;;;2.42;1.15;;;26.30;71.00;;;;;;5032910;28;20035;-80
2023/09/04 11:06:10;;;;;;;3.63;1.33;;;26.60;69.50;;;;;;5032365;28;20056;-80
2023/09/04 11:08:38;;;;;;;3.08;1.30;;;26.80;68.90;;;;;;5031037;28;20025;-80
2023/09/04 11:11:08;;;;;;;3.40;1.48;;;27.00;68.90;;;;;;5032662;28;20040;-80
2023/09/04 11:13:38;;;;;;;3.80;1.48;;;27.20;67.90;;;;;;5033019;28;20459;-80
2023/09/04 11:16:04;;;;;;;4.38;1.50;;;27.40;67.20;;;;;;5032927;28;20029;-80
2023/09/04 11:18:37;;;;;;;3.13;1.52;;;27.60;66.70;;;;;;5032047;28;20057;-81
2023/09/04 11:21:04;;;;;;;3.15;1.23;;;27.90;65.90;;;;;;5031922;28;20025;-80
2023/09/04 11:23:31;;;;;;;3.08;1.40;;;28.10;65.70;;;;;;5032828;28;20033;-80
2023/09/04 11:25:57;;;;;;;3.67;1.23;;;28.20;65.20;;;;;;5032258;28;20032;-80
2023/09/04 11:28:26;;;;;;;6.07;1.63;;;28.40;64.50;;;;;;5031927;28;20025;-80
2023/09/04 11:30:58;;;;;;;2.92;1.20;;;28.60;63.60;;;;;;5030363;28;20496;-80
2023/09/04 11:33:29;;;;;;;1.92;1.02;;;28.80;62.80;;;;;;5031696;28;20049;-80
2023/09/04 11:36:06;;;;;;;3.10;1.45;;;29.00;62.60;;;;;;5031585;28;20067;-81
2023/09/04 11:38:33;;;;;;;4.15;1.90;;;29.30;61.70;;;;;;5032104;28;20022;-80
2023/09/04 11:41:00;;;;;;;2.83;1.30;;;29.50;61.30;;;;;;5031574;28;20061;-82
2023/09/04 11:43:27;;;;;;;1.88;1.02;;;29.60;60.60;;;;;;5031297;28;20108;-80
2023/09/04 11:45:56;;;;;;;2.72;1.30;;;29.80;60.00;;;;;;5031516;28;20496;-81
2023/09/04 11:48:26;;;;;;;2.60;1.17;;;30.00;59.50;;;;;;5031413;28;20032;-81
2023/09/04 11:50:53;;;;;;;2.50;1.10;;;30.20;58.90;;;;;;5031618;28;20025;-81
2023/09/04 11:53:19;;;;;;;4.28;1.20;;;30.40;58.60;;;;;;5031402;28;20500;-81
2023/09/04 11:55:46;;;;;;;3.65;1.17;;;30.50;58.00;;;;;;5031413;28;20110;-81
2023/09/04 11:58:12;;;;;;;3.08;1.30;;;30.70;57.40;;;;;;5031735;28;20484;-81
2023/09/04 12:00:39;;;;;;;4.38;1.20;;;30.80;57.00;;;;;;5031331;28;20104;-81
2023/09/04 12:03:04;;;;;;;4.10;1.65;;;30.90;56.70;;;;;;5031716;28;20128;-81
2023/09/04 12:05:31;;;;;;;4.30;1.67;;;31.00;56.50;;;;;;5031475;28;20036;-81
2023/09/04 12:07:57;;;;;;;2.40;1.40;;;31.10;56.20;;;;;;5031691;28;20056;-81
2023/09/04 12:10:22;;;;;;;3.50;1.00;;;31.20;55.90;;;;;;5031424;28;20527;-81
2023/09/04 12:12:48;;;;;;;3.83;1.30;;;31.30;55.70;;;;;;5031209;28;20041;-80
2023/09/04 12:15:28;;;;;;;3.25;1.58;;;31.50;55.50;;;;;;5031482;28;20084;-81
2023/09/04 12:17:54;;;;;;;2.90;1.50;;;31.70;54.90;;;;;;5031715;28;20025;-80
2023/09/04 12:20:20;;;;;;;2.67;1.30;;;31.90;55.00;;;;;;5030228;28;20029;-81
2023/09/04 12:22:56;;;;;;;3.10;1.48;;;32.00;54.90;;;;;;5031191;28;20050;-81
2023/09/04 12:25:25;;;;;;;3.03;1.45;;;32.20;54.50;;;;;;5030921;28;20121;-81
2023/09/04 12:27:51;;;;;;;3.75;1.40;;;32.40;54.60;;;;;;5031493;28;20033;-81
2023/09/04 12:30:17;;;;;;;3.97;1.67;;;32.60;54.40;;;;;;5030730;28;20031;-81
2023/09/04 12:32:42;;;;;;;2.60;1.63;;;32.80;54.10;;;;;;5029786;28;20033;-81
2023/09/04 12:35:09;;;;;;;6.75;1.63;;;33.00;53.70;;;;;;5031269;28;20037;-81
2023/09/04 12:37:36;;;;;;;4.07;1.23;;;33.10;54.00;;;;;;5031099;28;20038;-81
2023/09/04 12:40:08;;;;;;;2.65;1.60;;;33.30;53.00;;;;;;5030959;28;20022;-81
2023/09/04 12:42:33;;;;;;;2.78;1.30;;;33.50;52.60;;;;;;5032146;28;20503;-81
2023/09/04 12:44:59;;;;;;;1.83;1.00;;;33.70;52.10;;;;;;5034558;28;20021;-81